Aeroporto :
LOGIN :

Iscrizione | Disclaimer

   EN    FR    IT 

 










Sommario :    VFR   VFR Marginale   IFR   IFR Intensivo   IFR Molto Intensivo
Visibilità : 
Base nubi : 
>= 8 km
>= 3000ft
5 / 8 km
1000 / 3000 ft
1500m / 5 km
500 / 1000 ft
800 / 1500m
200 / 500 ft
< 800m
< 200 ft
Simboli :   Temporali  Nebbia  Neve Forte  Precipitazioni Forti  Vento > 20 kt
SIGMETs :   Varie  Temporali  Ghiacco  Turbolenza  Onda orograficha  Ceneri Vulcaniche






- Altitudine del aeroporto : 325 ft


LPCS - Cascais

ULTIMO METAR :
  • 291400Z 27010KT 230V300 9999 SCT020 16/10 Q1018

METARs OBSOLETI :
  • 291330Z 27012KT 240V300 9999 SCT020 16/11 Q1018
  • 291300Z 28011KT 230V310 9999 FEW020 SCT030 16/11 Q1018
  • 291230Z 26010KT 230V320 9999 FEW018 SCT025 17/11 Q1018
  • 291200Z 29009KT 260V320 9999 FEW018 17/10 Q1018
  • 291130Z 29009KT 9999 FEW014 BKN028 17/10 Q1018
  • 291100Z 32009KT 9999 SCT014 BKN026 17/12 Q1018

TAF TAF LPCS
Valido dal 29 a 12 ore il 29 a 21 ore UTC


291100Z 2912/2921 30013KT 9999 FEW016 SCT030
PROB40
TEMPO 2912/2918 BKN015



MetMap, La meteo Aeronautica in un colpo d'occhio ! - Copyright ORBIFLY Dicembre 2007 - Disclaimer

ORBIFLY MET'MAP TEAM :

Programmazione e sviluppo : Alexandra Zaïnal
Concezione : Baudouin d'Aumeries
Aiuto per la programmazione : Marc-Olivier Méhu
Supporto tecnico e logistico : Manuel Goepfert
Aiuto per la traduzione : Arnaldo La Scala

Contatto : metmap@orbifly.com




FONTI E CREDITI :

   NOAA